Time;durP1;ratioP1;P1;durP2;ratioP2;P2;SDS_P1;SDS_P2;PMS_P1;PMS_P2;Temp;Humidity;BMP_temperature;BMP_pressure;BME280_temperature;BME280_humidity;BME280_pressure;Samples;Min_cycle;Max_cycle;Signal;HPM_P1;HPM_P2
2022/10/23 00:01:25;;;;;;;32.87;6.37;;;16.80;63.10;;;;;;5099823;28;20475;-87
2022/10/23 00:03:54;;;;;;;35.27;6.40;;;16.50;63.00;;;;;;5108460;28;21013;-87
2022/10/23 00:06:21;;;;;;;49.30;6.27;;;16.20;64.30;;;;;;5111317;28;20982;-87
2022/10/23 00:08:49;;;;;;;79.37;9.10;;;16.10;64.60;;;;;;5109499;28;20545;-87
2022/10/23 00:11:18;;;;;;;66.47;9.13;;;16.00;64.70;;;;;;5107854;28;20468;-86
2022/10/23 00:13:48;;;;;;;40.10;8.50;;;15.80;65.70;;;;;;5109627;27;20467;-87
2022/10/23 00:16:17;;;;;;;18.10;6.80;;;15.80;66.10;;;;;;5110850;27;20453;-86
2022/10/23 00:18:44;;;;;;;14.53;6.00;;;15.80;66.20;;;;;;5114354;27;20457;-87
2022/10/23 00:21:14;;;;;;;14.80;6.53;;;16.10;65.70;;;;;;5114767;27;20465;-86
2022/10/23 00:23:41;;;;;;;21.67;6.10;;;16.30;65.10;;;;;;5111590;27;20470;-87
2022/10/23 00:26:13;;;;;;;20.90;7.27;;;16.40;64.90;;;;;;5078132;27;20473;-87
2022/10/23 00:28:41;;;;;;;26.83;7.57;;;16.50;64.60;;;;;;5102189;27;20456;-87
2022/10/23 00:31:08;;;;;;;27.83;7.93;;;16.60;64.20;;;;;;5097807;27;20445;-87
2022/10/23 00:33:37;;;;;;;34.13;9.37;;;16.70;64.00;;;;;;5111875;27;20494;-86
2022/10/23 00:36:06;;;;;;;34.03;7.27;;;16.70;63.60;;;;;;5097937;27;20446;-86
2022/10/23 00:38:33;;;;;;;22.00;7.20;;;16.70;63.70;;;;;;5113317;27;21068;-87
2022/10/23 00:41:00;;;;;;;41.90;6.60;;;16.70;64.00;;;;;;5114255;27;20529;-87
2022/10/23 00:43:29;;;;;;;137.37;9.97;;;16.80;63.60;;;;;;5094139;27;20500;-86
2022/10/23 00:45:56;;;;;;;57.17;7.50;;;16.50;63.90;;;;;;5111479;27;21054;-87
2022/10/23 00:48:25;;;;;;;44.03;6.63;;;16.40;64.70;;;;;;5097590;28;20823;-85
2022/10/23 00:50:54;;;;;;;38.03;6.90;;;16.40;64.70;;;;;;5110721;27;20992;-87
2022/10/23 00:53:23;;;;;;;23.93;7.07;;;16.50;64.70;;;;;;5112447;27;20457;-87
2022/10/23 00:55:53;;;;;;;48.47;7.40;;;16.50;64.40;;;;;;5114169;27;20508;-86
2022/10/23 00:58:21;;;;;;;31.90;6.33;;;16.40;65.00;;;;;;5093934;27;20451;-86
2022/10/23 01:00:50;;;;;;;16.33;6.60;;;16.30;65.20;;;;;;5112303;27;20827;-87
2022/10/23 01:03:23;;;;;;;38.00;7.20;;;16.50;65.20;;;;;;5112557;27;20462;-87
2022/10/23 01:06:00;;;;;;;44.47;7.30;;;16.40;64.60;;;;;;5093841;28;20842;-87
2022/10/23 01:08:32;;;;;;;25.37;6.13;;;16.30;64.90;;;;;;5091368;27;20478;-87
2022/10/23 01:11:06;;;;;;;67.77;7.53;;;16.30;65.10;;;;;;5097212;27;20452;-86
2022/10/23 01:13:43;;;;;;;59.77;8.20;;;16.30;65.10;;;;;;5110959;27;20467;-86
2022/10/23 01:16:17;;;;;;;48.90;8.33;;;16.20;64.90;;;;;;5112559;27;20451;-86
2022/10/23 01:18:47;;;;;;;73.53;7.33;;;16.10;65.40;;;;;;5109459;27;20958;-86
2022/10/23 01:21:20;;;;;;;22.87;6.20;;;16.10;65.40;;;;;;5092097;27;20503;-86
2022/10/23 01:24:08;;;;;;;29.97;5.70;;;16.10;65.60;;;;;;5091772;27;20997;-87
2022/10/23 01:26:58;;;;;;;28.93;5.17;;;16.20;65.20;;;;;;5109380;27;20510;-87
2022/10/23 01:29:32;;;;;;;47.73;7.20;;;16.00;65.50;;;;;;5110901;27;20542;-86
2022/10/23 01:32:04;;;;;;;16.93;8.07;;;15.80;66.10;;;;;;5114419;27;20533;-86
2022/10/23 01:34:36;;;;;;;31.40;7.33;;;15.80;66.40;;;;;;5082951;27;20474;-86
2022/10/23 01:37:05;;;;;;;44.00;6.00;;;15.70;66.50;;;;;;5112902;27;20446;-86
2022/10/23 01:39:36;;;;;;;47.80;6.70;;;15.80;66.50;;;;;;5109979;27;20528;-86
2022/10/23 01:42:08;;;;;;;34.67;5.70;;;15.70;66.30;;;;;;5112137;27;20466;-86
2022/10/23 01:44:41;;;;;;;8.87;4.70;;;15.60;66.80;;;;;;5112262;27;20478;-86
2022/10/23 01:47:11;;;;;;;14.47;5.43;;;15.60;67.10;;;;;;5095851;27;20446;-88
2022/10/23 01:49:55;;;;;;;21.93;5.80;;;15.70;66.70;;;;;;5092039;27;20435;-86
2022/10/23 01:52:22;;;;;;;129.67;11.90;;;16.00;65.80;;;;;;5109800;27;20451;-86
2022/10/23 01:54:53;;;;;;;40.67;5.43;;;15.70;65.40;;;;;;5089666;27;20481;-86
2022/10/23 01:57:23;;;;;;;5.83;3.90;;;15.60;66.00;;;;;;5112701;27;20463;-85
2022/10/23 01:59:56;;;;;;;29.13;5.40;;;15.40;66.60;;;;;;5091208;27;20450;-87
2022/10/23 02:02:24;;;;;;;5.07;4.43;;;15.70;66.30;;;;;;5092781;28;20502;-86
2022/10/23 02:05:00;;;;;;;5.53;4.03;;;15.80;65.80;;;;;;5093336;27;20469;-86
2022/10/23 02:07:27;;;;;;;6.27;4.20;;;15.90;64.90;;;;;;5110925;27;20461;-87
2022/10/23 02:09:55;;;;;;;11.40;3.30;;;15.80;64.70;;;;;;5093242;27;20577;-85
2022/10/23 02:12:28;;;;;;;5.13;4.17;;;15.90;64.40;;;;;;5074363;28;20912;-86
2022/10/23 02:15:03;;;;;;;4.80;3.67;;;16.00;64.10;;;;;;5092528;27;20560;-86
2022/10/23 02:17:41;;;;;;;19.63;3.90;;;16.20;63.90;;;;;;5084348;27;20442;-86
2022/10/23 02:20:17;;;;;;;6.87;3.20;;;16.20;63.20;;;;;;5095487;27;20454;-86
2022/10/23 02:22:55;;;;;;;4.07;3.47;;;16.20;63.40;;;;;;5073816;27;20474;-86
2022/10/23 02:25:25;;;;;;;3.70;3.00;;;16.00;62.60;;;;;;5109750;27;20987;-87
2022/10/23 02:27:55;;;;;;;7.73;3.80;;;15.80;63.50;;;;;;5091658;27;20486;-86
2022/10/23 02:30:30;;;;;;;17.33;4.23;;;16.00;63.60;;;;;;5091831;27;20511;-86
2022/10/23 02:33:08;;;;;;;22.87;6.10;;;16.10;63.40;;;;;;5089892;27;20451;-86
2022/10/23 02:35:36;;;;;;;9.50;4.70;;;16.20;63.50;;;;;;5072816;27;20454;-86
2022/10/23 02:38:34;;;;;;;18.80;5.07;;;16.10;63.20;;;;;;5092276;27;20479;-86
2022/10/23 02:41:17;;;;;;;6.17;3.67;;;16.20;63.60;;;;;;5082552;27;20454;-87
2022/10/23 02:43:57;;;;;;;23.83;4.83;;;16.30;63.30;;;;;;5108160;27;20573;-87
2022/10/23 02:46:32;;;;;;;146.23;11.07;;;16.30;63.10;;;;;;5090908;27;20868;-86
2022/10/23 02:49:07;;;;;;;36.63;6.70;;;16.20;62.30;;;;;;5093423;28;20494;-87
2022/10/23 02:51:44;;;;;;;7.27;4.30;;;16.00;63.30;;;;;;5093759;28;20935;-86
2022/10/23 02:54:20;;;;;;;238.97;16.60;;;16.10;63.20;;;;;;5109480;27;20466;-86
2022/10/23 02:56:54;;;;;;;135.77;11.20;;;15.80;63.10;;;;;;5101163;27;20442;-86
2022/10/23 02:59:29;;;;;;;89.43;9.10;;;15.60;64.60;;;;;;5094165;27;20462;-87
2022/10/23 03:02:04;;;;;;;27.50;5.70;;;15.70;64.80;;;;;;5092112;27;20449;-86
2022/10/23 03:04:32;;;;;;;101.37;10.67;;;15.60;65.70;;;;;;5092206;27;20469;-87
2022/10/23 03:06:59;;;;;;;31.33;7.00;;;15.60;65.20;;;;;;5111726;27;20445;-87
2022/10/23 03:09:27;;;;;;;55.13;7.07;;;15.60;65.00;;;;;;5092389;27;20451;-87
2022/10/23 03:11:54;;;;;;;177.10;13.43;;;15.60;64.80;;;;;;5110470;27;20540;-86
2022/10/23 03:14:21;;;;;;;356.60;21.33;;;15.40;65.30;;;;;;5099887;28;20494;-87
2022/10/23 03:16:48;;;;;;;224.63;13.40;;;15.60;65.00;;;;;;5107203;27;20462;-87
2022/10/23 03:19:16;;;;;;;68.33;8.27;;;15.50;64.90;;;;;;5094493;28;20460;-87
2022/10/23 03:21:43;;;;;;;19.07;4.77;;;15.40;65.80;;;;;;5107151;27;20558;-87
2022/10/23 03:24:10;;;;;;;24.33;5.00;;;15.60;65.70;;;;;;5110123;27;20474;-87
2022/10/23 03:26:42;;;;;;;40.50;6.47;;;15.70;65.30;;;;;;5087830;28;20447;-87
2022/10/23 03:29:10;;;;;;;24.47;5.73;;;15.70;65.00;;;;;;5089777;27;20542;-87
2022/10/23 03:31:42;;;;;;;56.17;5.97;;;15.60;65.30;;;;;;5098724;27;20453;-85
2022/10/23 03:34:10;;;;;;;28.60;6.23;;;15.50;65.20;;;;;;5108548;28;20469;-86
2022/10/23 03:36:41;;;;;;;44.20;4.90;;;15.40;65.30;;;;;;5092855;27;20445;-86
2022/10/23 03:39:10;;;;;;;37.33;4.90;;;15.50;64.90;;;;;;5091680;28;20443;-86
2022/10/23 03:41:37;;;;;;;24.33;5.00;;;15.50;65.00;;;;;;5110175;28;20445;-86
2022/10/23 03:44:04;;;;;;;13.70;3.93;;;15.60;64.70;;;;;;5109858;28;20474;-86
2022/10/23 03:46:31;;;;;;;18.37;4.30;;;15.60;64.80;;;;;;5088565;28;20556;-86
2022/10/23 03:48:58;;;;;;;61.33;6.40;;;15.30;65.30;;;;;;5091304;27;20500;-87
2022/10/23 03:51:26;;;;;;;48.30;5.60;;;15.30;65.80;;;;;;5114546;27;20859;-85
2022/10/23 03:53:55;;;;;;;26.97;5.63;;;15.30;65.40;;;;;;5113320;27;20466;-86
2022/10/23 03:56:22;;;;;;;41.63;7.77;;;15.30;65.20;;;;;;5094895;27;20981;-86
2022/10/23 03:58:49;;;;;;;12.10;3.53;;;15.00;65.60;;;;;;5114032;27;21241;-86
2022/10/23 04:01:16;;;;;;;59.17;7.10;;;14.90;66.30;;;;;;5104004;27;20450;-87
2022/10/23 04:03:45;;;;;;;8.07;4.10;;;14.90;66.40;;;;;;5096474;27;20482;-86
2022/10/23 04:06:12;;;;;;;9.30;3.87;;;15.10;66.30;;;;;;5113958;27;20447;-87
2022/10/23 04:08:39;;;;;;;9.83;3.97;;;15.20;66.10;;;;;;5113996;27;21166;-86
2022/10/23 04:11:14;;;;;;;5.60;4.00;;;15.40;65.70;;;;;;5092593;27;20946;-86
2022/10/23 04:13:45;;;;;;;17.00;4.07;;;15.60;65.20;;;;;;5083169;28;20474;-85
2022/10/23 04:16:12;;;;;;;6.30;3.57;;;15.40;64.00;;;;;;5096131;27;20455;-86
2022/10/23 04:18:40;;;;;;;9.70;4.13;;;15.20;64.60;;;;;;5075344;27;20451;-86
2022/10/23 04:21:09;;;;;;;4.40;3.27;;;15.00;64.90;;;;;;5104264;27;20438;-86
2022/10/23 04:23:36;;;;;;;3.43;3.07;;;15.10;65.40;;;;;;5111176;27;20569;-86
2022/10/23 04:26:05;;;;;;;5.37;3.30;;;15.30;65.50;;;;;;5096594;27;20827;-86
2022/10/23 04:28:34;;;;;;;7.03;3.10;;;15.50;64.60;;;;;;5111094;27;20458;-86
2022/10/23 04:31:01;;;;;;;3.83;3.40;;;15.70;64.00;;;;;;5095126;27;20465;-88
2022/10/23 04:33:28;;;;;;;9.43;3.67;;;15.70;63.40;;;;;;5094706;27;20476;-87
2022/10/23 04:35:56;;;;;;;8.23;4.23;;;15.60;63.60;;;;;;5112873;27;20553;-86
2022/10/23 04:38:23;;;;;;;8.83;4.57;;;15.70;64.10;;;;;;5091741;27;20455;-85
2022/10/23 04:40:50;;;;;;;10.63;4.30;;;15.70;63.80;;;;;;5077201;28;20451;-87
2022/10/23 04:43:21;;;;;;;12.23;4.73;;;15.80;63.40;;;;;;5083739;27;20486;-85
2022/10/23 04:45:50;;;;;;;6.70;4.03;;;15.80;63.20;;;;;;5109145;27;20458;-87
2022/10/23 04:48:17;;;;;;;26.40;5.67;;;15.60;63.50;;;;;;5093075;27;20546;-87
2022/10/23 04:51:16;;;;;;;4.27;3.70;;;15.20;64.20;;;;;;5083983;27;21119;-86
2022/10/23 04:54:04;;;;;;;8.00;4.27;;;15.10;65.00;;;;;;5111290;27;20466;-86
2022/10/23 04:56:57;;;;;;;6.03;4.00;;;15.00;65.20;;;;;;5111799;27;20579;-86
2022/10/23 04:59:24;;;;;;;7.43;5.60;;;14.90;65.00;;;;;;5096454;27;20449;-86
2022/10/23 05:01:53;;;;;;;11.50;5.20;;;15.10;64.50;;;;;;5103739;27;20469;-86
2022/10/23 05:04:20;;;;;;;12.67;4.87;;;15.40;64.10;;;;;;5112446;27;21278;-86
2022/10/23 05:07:06;;;;;;;7.73;5.00;;;15.20;62.90;;;;;;5112294;27;20529;-87
2022/10/23 05:09:40;;;;;;;4.63;4.23;;;15.10;64.00;;;;;;5092177;27;20442;-86
2022/10/23 05:12:36;;;;;;;4.83;4.00;;;15.20;63.90;;;;;;5089958;27;20500;-86
2022/10/23 05:15:05;;;;;;;44.47;6.57;;;15.10;64.00;;;;;;5092967;27;20466;-87
2022/10/23 05:17:36;;;;;;;20.30;5.30;;;15.20;64.00;;;;;;5102439;27;20446;-87
2022/10/23 05:20:08;;;;;;;6.50;4.13;;;15.30;63.90;;;;;;5102820;27;20457;-87
2022/10/23 05:22:37;;;;;;;9.70;5.20;;;15.30;64.00;;;;;;5110062;27;20443;-87
2022/10/23 05:25:08;;;;;;;32.43;6.27;;;15.20;63.80;;;;;;5083484;27;20478;-87
2022/10/23 05:27:36;;;;;;;6.27;4.87;;;14.80;64.90;;;;;;5081560;27;20439;-86
2022/10/23 05:30:09;;;;;;;6.27;5.13;;;14.80;65.60;;;;;;5110402;27;20450;-87
2022/10/23 05:32:39;;;;;;;9.43;5.10;;;15.00;65.40;;;;;;5106056;27;20462;-86
2022/10/23 05:35:09;;;;;;;15.10;5.90;;;15.30;64.90;;;;;;5097247;27;20544;-87
2022/10/23 05:37:40;;;;;;;13.90;5.73;;;15.40;64.10;;;;;;5093112;27;20459;-87
2022/10/23 05:40:14;;;;;;;15.80;4.70;;;15.20;64.30;;;;;;5101144;27;20445;-88
2022/10/23 05:42:43;;;;;;;12.27;5.10;;;14.90;65.10;;;;;;5090616;27;21187;-88
2022/10/23 05:45:12;;;;;;;7.40;6.50;;;15.00;64.60;;;;;;5100133;27;20474;-87
2022/10/23 05:48:07;;;;;;;7.27;5.40;;;14.90;64.50;;;;;;5108333;27;20445;-87
2022/10/23 05:51:01;;;;;;;7.47;5.20;;;15.10;64.00;;;;;;5089043;27;20446;-87
2022/10/23 05:53:40;;;;;;;15.43;5.80;;;15.20;63.80;;;;;;5106782;27;20482;-88
2022/10/23 05:56:15;;;;;;;7.83;6.07;;;15.00;63.80;;;;;;5084314;27;20572;-87
2022/10/23 05:58:45;;;;;;;7.80;5.90;;;15.10;64.20;;;;;;5092119;27;20504;-87
2022/10/23 06:01:42;;;;;;;7.07;5.80;;;15.10;64.20;;;;;;5099734;27;20446;-87
2022/10/23 06:04:10;;;;;;;9.80;6.93;;;15.20;63.90;;;;;;5076709;27;20931;-87
2022/10/23 06:06:56;;;;;;;8.90;6.70;;;15.30;63.80;;;;;;5109083;27;21018;-87
2022/10/23 06:09:23;;;;;;;9.00;5.30;;;15.50;63.20;;;;;;5089618;27;20525;-87
2022/10/23 06:11:55;;;;;;;5.67;3.90;;;15.30;62.60;;;;;;5061293;28;20512;-87
2022/10/23 06:14:23;;;;;;;7.00;5.43;;;15.10;63.20;;;;;;5087305;27;20458;-87
2022/10/23 06:16:52;;;;;;;8.07;5.10;;;15.10;62.70;;;;;;5076345;27;21141;-87
2022/10/23 06:19:21;;;;;;;9.50;5.80;;;15.20;63.30;;;;;;5089259;27;20933;-87
2022/10/23 06:21:52;;;;;;;10.60;6.70;;;15.30;62.80;;;;;;5091210;27;21150;-87
2022/10/23 06:24:21;;;;;;;6.33;5.30;;;15.10;62.20;;;;;;5106192;27;20497;-87
2022/10/23 06:26:53;;;;;;;7.03;5.40;;;14.70;63.60;;;;;;5089739;27;20439;-87
2022/10/23 06:29:23;;;;;;;7.37;5.67;;;14.80;63.80;;;;;;5106568;27;20442;-86
2022/10/23 06:31:50;;;;;;;8.17;6.40;;;14.90;64.00;;;;;;5089667;27;20449;-87
2022/10/23 06:34:18;;;;;;;9.70;7.40;;;15.10;63.30;;;;;;5088952;27;20458;-87
2022/10/23 06:36:47;;;;;;;8.37;5.87;;;15.10;62.70;;;;;;5098395;27;20454;-87
2022/10/23 06:39:39;;;;;;;6.00;4.70;;;14.90;62.20;;;;;;5090601;27;20502;-87
2022/10/23 06:42:12;;;;;;;5.47;4.80;;;14.70;62.20;;;;;;5089422;27;21005;-87
2022/10/23 06:44:54;;;;;;;6.83;6.13;;;14.90;62.70;;;;;;5107378;27;20842;-86
2022/10/23 06:47:40;;;;;;;5.30;4.80;;;15.10;62.60;;;;;;5084643;27;20445;-86
2022/10/23 06:50:29;;;;;;;4.57;4.10;;;15.20;62.20;;;;;;5090300;27;20494;-87
2022/10/23 06:52:58;;;;;;;4.57;4.17;;;15.30;61.90;;;;;;5085693;28;20462;-85
2022/10/23 06:55:25;;;;;;;6.30;5.63;;;15.40;60.90;;;;;;5103576;27;20476;-85
2022/10/23 06:57:52;;;;;;;9.07;5.60;;;15.10;61.70;;;;;;5090909;27;20468;-87
2022/10/23 07:00:20;;;;;;;9.50;6.13;;;15.20;62.40;;;;;;5087222;27;20492;-85
2022/10/23 07:02:52;;;;;;;5.83;4.93;;;15.30;62.40;;;;;;5098561;27;20453;-86
2022/10/23 07:05:20;;;;;;;6.60;4.77;;;15.30;62.30;;;;;;5087900;27;20477;-87
2022/10/23 07:07:48;;;;;;;6.67;4.50;;;15.10;62.30;;;;;;5097701;27;20511;-86
2022/10/23 07:10:23;;;;;;;6.33;5.60;;;15.00;63.00;;;;;;5087106;28;21167;-86
2022/10/23 07:12:59;;;;;;;3.40;3.20;;;14.90;63.30;;;;;;5086683;27;20446;-86
2022/10/23 07:15:36;;;;;;;4.80;3.80;;;15.10;62.80;;;;;;5106814;27;20462;-87
2022/10/23 07:18:05;;;;;;;5.57;4.47;;;15.10;61.90;;;;;;5089690;27;21075;-87
2022/10/23 07:20:50;;;;;;;5.93;4.87;;;14.60;63.90;;;;;;5089309;28;21048;-88
2022/10/23 07:23:17;;;;;;;7.30;4.53;;;14.80;64.20;;;;;;5098285;27;20453;-86
2022/10/23 07:25:46;;;;;;;6.37;5.07;;;14.80;63.90;;;;;;5072163;27;20898;-87
2022/10/23 07:28:20;;;;;;;5.77;4.90;;;14.80;64.40;;;;;;5098584;27;20989;-87
2022/10/23 07:30:56;;;;;;;5.73;4.10;;;15.10;63.90;;;;;;5107087;27;20964;-87
2022/10/23 07:33:24;;;;;;;5.13;4.30;;;15.10;63.00;;;;;;5087626;28;20438;-85
2022/10/23 07:35:58;;;;;;;5.23;4.30;;;15.20;63.60;;;;;;5089301;28;20447;-86
2022/10/23 07:38:28;;;;;;;7.90;5.00;;;15.20;63.30;;;;;;5089310;28;20457;-87
2022/10/23 07:40:59;;;;;;;4.37;3.97;;;15.10;63.50;;;;;;5091182;28;20515;-86
2022/10/23 07:43:26;;;;;;;5.47;3.60;;;15.30;63.40;;;;;;5086831;27;21022;-87
2022/10/23 07:45:53;;;;;;;4.60;4.20;;;15.30;63.50;;;;;;5091532;28;20500;-88
2022/10/23 07:48:26;;;;;;;6.20;5.00;;;15.40;63.60;;;;;;5104458;28;20451;-86
2022/10/23 07:51:00;;;;;;;5.33;4.83;;;15.40;63.50;;;;;;5106736;28;20496;-87
2022/10/23 07:53:28;;;;;;;6.70;5.60;;;15.20;63.70;;;;;;5077506;28;20459;-87
2022/10/23 07:56:04;;;;;;;6.23;5.63;;;15.10;64.20;;;;;;5073627;28;20644;-86
2022/10/23 07:58:54;;;;;;;5.20;4.70;;;15.40;64.00;;;;;;5108755;28;20443;-87
2022/10/23 08:01:30;;;;;;;5.83;5.13;;;15.70;63.50;;;;;;5092106;28;20454;-88
2022/10/23 08:03:58;;;;;;;9.70;5.50;;;15.80;63.00;;;;;;5073028;28;20479;-85
2022/10/23 08:06:25;;;;;;;6.37;5.20;;;15.80;62.90;;;;;;5096867;28;20451;-88
2022/10/23 08:08:52;;;;;;;11.03;5.90;;;15.60;63.40;;;;;;5088429;28;20453;-87
2022/10/23 08:11:26;;;;;;;6.07;5.47;;;15.70;63.80;;;;;;5096085;28;20455;-88
2022/10/23 08:13:54;;;;;;;7.63;6.67;;;15.90;63.40;;;;;;5089359;28;20564;-85
2022/10/23 08:16:23;;;;;;;6.47;5.53;;;16.00;63.00;;;;;;5091201;28;20462;-88
2022/10/23 08:18:57;;;;;;;6.63;5.47;;;16.10;62.40;;;;;;5105949;28;20450;-87
2022/10/23 08:21:24;;;;;;;6.23;4.87;;;15.80;63.10;;;;;;5089392;28;20451;-84
2022/10/23 08:23:54;;;;;;;8.90;7.43;;;15.70;63.90;;;;;;5088576;28;20465;-86
2022/10/23 08:26:23;;;;;;;17.43;12.80;;;15.80;64.30;;;;;;5091514;28;20434;-88
2022/10/23 08:28:51;;;;;;;7.60;5.50;;;16.00;64.20;;;;;;5107819;28;20438;-87
2022/10/23 08:31:21;;;;;;;12.27;8.60;;;16.10;63.50;;;;;;5088543;28;20454;-88
2022/10/23 08:34:09;;;;;;;6.10;5.50;;;16.10;63.50;;;;;;5092060;27;20463;-87
2022/10/23 08:36:38;;;;;;;10.80;9.47;;;16.20;63.20;;;;;;5099672;27;20442;-89
2022/10/23 08:39:06;;;;;;;8.27;6.27;;;16.40;62.70;;;;;;5092860;27;21162;-87
2022/10/23 08:41:38;;;;;;;12.57;11.27;;;16.50;61.90;;;;;;5106753;27;20458;-88
2022/10/23 08:44:21;;;;;;;8.30;6.13;;;16.20;62.60;;;;;;5089343;27;20686;-87
2022/10/23 08:46:52;;;;;;;19.87;17.80;;;15.90;63.70;;;;;;5090917;27;20441;-87
2022/10/23 08:49:47;;;;;;;17.53;14.80;;;15.90;64.10;;;;;;5107986;27;20522;-86
2022/10/23 08:52:21;;;;;;;9.23;8.30;;;15.80;64.80;;;;;;5100042;27;20468;-85
2022/10/23 08:55:04;;;;;;;7.37;6.60;;;15.80;64.80;;;;;;5109215;27;20465;-87
2022/10/23 08:57:36;;;;;;;7.80;6.40;;;16.10;64.70;;;;;;5108772;27;20446;-87
2022/10/23 09:00:06;;;;;;;6.70;5.60;;;16.30;65.00;;;;;;5090975;27;20457;-87
2022/10/23 09:02:38;;;;;;;6.60;5.90;;;16.10;64.80;;;;;;5107413;27;20429;-87
2022/10/23 09:05:14;;;;;;;7.30;5.77;;;16.20;65.10;;;;;;5073090;27;20465;-87
2022/10/23 09:08:00;;;;;;;10.93;6.60;;;16.30;64.90;;;;;;5107562;27;20981;-87
2022/10/23 09:10:45;;;;;;;7.73;5.63;;;16.30;65.50;;;;;;5098745;27;20447;-89
2022/10/23 09:13:36;;;;;;;7.10;6.40;;;16.20;65.10;;;;;;5100276;27;20502;-87
2022/10/23 09:16:13;;;;;;;17.80;12.80;;;16.50;65.70;;;;;;5111054;27;20446;-88
2022/10/23 09:18:42;;;;;;;15.87;12.40;;;16.70;64.80;;;;;;5111519;27;20442;-89
2022/10/23 09:21:10;;;;;;;9.50;6.17;;;16.80;64.80;;;;;;5095451;27;20441;-89
2022/10/23 09:23:38;;;;;;;8.50;4.87;;;16.90;64.00;;;;;;5095690;27;21000;-89
2022/10/23 09:26:13;;;;;;;5.90;5.30;;;16.70;65.10;;;;;;5093094;27;20501;-88
2022/10/23 09:28:47;;;;;;;5.60;4.80;;;16.80;64.80;;;;;;5110104;27;20531;-89
2022/10/23 09:31:15;;;;;;;7.07;5.57;;;16.70;65.10;;;;;;5113945;27;20446;-88
2022/10/23 09:33:54;;;;;;;7.43;5.17;;;16.90;64.70;;;;;;5111129;27;20477;-88
2022/10/23 09:36:24;;;;;;;6.10;5.30;;;16.80;64.90;;;;;;5093404;27;21007;-88
2022/10/23 09:38:54;;;;;;;8.10;5.80;;;16.80;65.30;;;;;;5109964;27;20454;-88
2022/10/23 09:41:25;;;;;;;8.63;7.53;;;16.80;65.50;;;;;;5112482;27;20438;-88
2022/10/23 09:44:17;;;;;;;6.73;6.03;;;17.00;64.90;;;;;;5095124;27;20481;-89
2022/10/23 09:46:47;;;;;;;7.47;5.77;;;17.20;64.80;;;;;;5092736;27;20525;-89
2022/10/23 09:49:20;;;;;;;6.47;5.90;;;17.40;64.60;;;;;;5111863;27;20529;-87
2022/10/23 09:51:54;;;;;;;5.80;5.20;;;17.50;64.60;;;;;;5112043;27;20454;-87
2022/10/23 09:54:22;;;;;;;6.40;5.67;;;17.40;64.90;;;;;;5110748;27;20830;-89
2022/10/23 09:56:50;;;;;;;7.20;4.70;;;17.60;64.70;;;;;;5111059;27;20530;-88
2022/10/23 09:59:25;;;;;;;6.27;5.67;;;17.80;64.60;;;;;;5075343;27;20446;-89
2022/10/23 10:01:54;;;;;;;7.73;5.40;;;18.10;64.50;;;;;;5108746;27;20840;-88
2022/10/23 10:04:41;;;;;;;5.10;4.60;;;18.30;64.10;;;;;;5091844;27;20479;-89
2022/10/23 10:07:18;;;;;;;6.70;4.30;;;18.50;63.40;;;;;;5092693;27;20447;-89
2022/10/23 10:09:46;;;;;;;5.10;4.70;;;18.40;63.40;;;;;;5109292;27;20495;-88
2022/10/23 10:12:31;;;;;;;5.50;4.83;;;18.40;63.40;;;;;;5079081;27;20461;-89
2022/10/23 10:15:17;;;;;;;4.17;3.80;;;18.60;63.00;;;;;;5110063;27;20462;-87
2022/10/23 10:17:56;;;;;;;7.60;5.17;;;18.60;63.40;;;;;;5108009;27;20456;-89
2022/10/23 10:20:56;;;;;;;4.83;4.23;;;18.40;63.90;;;;;;5108056;27;21313;-89
2022/10/23 10:23:33;;;;;;;6.30;4.33;;;18.30;63.80;;;;;;5101755;27;20451;-88
2022/10/23 10:26:15;;;;;;;5.20;3.63;;;18.40;64.70;;;;;;5107052;27;20482;-89
2022/10/23 10:28:59;;;;;;;5.33;4.40;;;18.40;65.30;;;;;;5109267;27;20537;-88
2022/10/23 10:31:36;;;;;;;4.70;4.30;;;18.40;65.80;;;;;;5112089;27;20486;-89
2022/10/23 10:34:12;;;;;;;4.80;3.20;;;18.60;65.30;;;;;;5109336;27;20474;-89
2022/10/23 10:36:46;;;;;;;3.60;3.30;;;18.70;64.80;;;;;;5111369;27;20537;-89
2022/10/23 10:39:24;;;;;;;5.73;3.30;;;18.80;64.70;;;;;;5110942;27;20504;-88
2022/10/23 10:42:04;;;;;;;4.00;3.70;;;18.90;65.10;;;;;;5107993;27;20449;-87
2022/10/23 10:44:45;;;;;;;3.93;3.60;;;19.10;65.30;;;;;;5105759;27;21162;-88
2022/10/23 10:47:21;;;;;;;4.33;3.80;;;19.40;64.70;;;;;;5108641;27;20449;-88
2022/10/23 10:49:58;;;;;;;3.93;3.63;;;19.60;64.40;;;;;;5088641;27;20539;-89
2022/10/23 10:52:50;;;;;;;5.87;3.50;;;19.70;63.50;;;;;;5085081;27;20469;-89
2022/10/23 10:55:23;;;;;;;6.27;4.37;;;19.70;63.50;;;;;;5108984;27;20474;-90
2022/10/23 10:57:55;;;;;;;4.23;3.50;;;19.70;63.80;;;;;;5108894;27;20482;-89
2022/10/23 11:00:23;;;;;;;3.07;2.80;;;19.80;63.30;;;;;;5109568;27;20446;-89
2022/10/23 11:02:57;;;;;;;5.90;3.43;;;19.90;62.90;;;;;;5093081;27;20446;-88
2022/10/23 11:05:30;;;;;;;5.00;3.13;;;19.80;63.00;;;;;;5084224;27;20835;-88
2022/10/23 11:08:01;;;;;;;3.90;2.73;;;20.00;63.10;;;;;;5111210;27;20498;-88
2022/10/23 11:10:30;;;;;;;3.40;3.10;;;20.00;62.90;;;;;;5109151;27;20439;-88
2022/10/23 11:12:57;;;;;;;8.00;5.80;;;20.10;63.00;;;;;;5088870;27;20454;-88
2022/10/23 11:15:28;;;;;;;3.67;3.30;;;20.30;62.80;;;;;;5109177;27;20466;-87
2022/10/23 11:18:01;;;;;;;3.73;3.20;;;20.40;61.90;;;;;;5108623;27;20450;-88
2022/10/23 11:20:51;;;;;;;5.00;4.50;;;20.00;62.40;;;;;;5108493;27;20442;-91
2022/10/23 11:23:38;;;;;;;5.33;3.23;;;19.90;63.80;;;;;;5112063;27;20456;-88
2022/10/23 11:26:19;;;;;;;4.50;2.70;;;20.00;63.50;;;;;;5108099;27;20830;-90
2022/10/23 11:29:15;;;;;;;4.70;3.03;;;20.10;63.40;;;;;;5095471;28;20913;-88
2022/10/23 11:31:54;;;;;;;3.23;3.03;;;20.30;63.10;;;;;;5111918;28;20449;-88
2022/10/23 11:34:43;;;;;;;3.83;3.17;;;20.50;62.40;;;;;;5108280;28;20458;-91
2022/10/23 11:37:17;;;;;;;4.73;2.97;;;20.50;62.00;;;;;;5092613;28;20532;-88
2022/10/23 11:39:59;;;;;;;4.77;2.73;;;20.40;62.30;;;;;;5108508;28;20531;-89
2022/10/23 11:42:46;;;;;;;2.80;2.57;;;20.40;62.40;;;;;;5106712;28;20535;-89
2022/10/23 11:45:33;;;;;;;3.53;3.23;;;20.40;63.20;;;;;;5108913;27;20476;-88
2022/10/23 11:48:02;;;;;;;4.03;3.10;;;20.60;62.30;;;;;;5111762;28;21289;-90
2022/10/23 11:50:34;;;;;;;3.67;3.03;;;20.60;62.20;;;;;;5108455;28;21200;-89
2022/10/23 11:53:09;;;;;;;7.07;4.33;;;20.70;62.00;;;;;;5104891;27;20450;-88
2022/10/23 11:55:37;;;;;;;5.83;3.73;;;20.90;61.90;;;;;;5106253;27;20465;-87
2022/10/23 11:58:30;;;;;;;3.57;3.00;;;20.90;62.30;;;;;;5075732;28;20457;-88
2022/10/23 12:01:03;;;;;;;3.40;3.10;;;21.00;62.10;;;;;;5084956;28;20511;-89
2022/10/23 12:03:41;;;;;;;4.87;2.93;;;21.10;62.10;;;;;;5106192;28;20569;-89
2022/10/23 12:06:22;;;;;;;5.70;2.87;;;21.20;61.90;;;;;;5105044;28;20556;-89
2022/10/23 12:08:56;;;;;;;3.83;2.83;;;21.40;61.90;;;;;;5105122;28;20455;-89
2022/10/23 12:11:27;;;;;;;7.73;2.60;;;21.50;61.50;;;;;;5076497;27;20450;-88
2022/10/23 12:13:54;;;;;;;2.80;2.43;;;21.70;60.60;;;;;;5109962;27;20458;-86
2022/10/23 12:16:21;;;;;;;8.60;3.00;;;22.10;60.40;;;;;;5091831;27;20446;-88
2022/10/23 12:18:51;;;;;;;2.20;2.03;;;22.20;59.50;;;;;;5107684;27;20439;-88
2022/10/23 12:21:26;;;;;;;2.80;2.60;;;22.10;59.50;;;;;;5108438;27;20438;-88
2022/10/23 12:24:24;;;;;;;3.00;2.70;;;22.30;59.40;;;;;;5108972;27;20470;-88
2022/10/23 12:27:11;;;;;;;2.57;2.37;;;22.30;58.90;;;;;;5099438;27;22144;-89
2022/10/23 12:29:55;;;;;;;2.90;2.70;;;22.30;58.70;;;;;;5108122;27;20570;-89
2022/10/23 12:32:38;;;;;;;2.80;2.60;;;22.30;59.30;;;;;;5113295;27;20449;-89
2022/10/23 12:35:22;;;;;;;3.57;2.67;;;22.30;59.20;;;;;;5109641;27;20476;-88
2022/10/23 12:38:08;;;;;;;3.87;2.73;;;22.20;58.90;;;;;;5112833;27;20530;-88
2022/10/23 12:40:35;;;;;;;3.10;2.80;;;22.00;59.40;;;;;;5100722;27;20514;-89
2022/10/23 12:43:02;;;;;;;3.63;2.33;;;22.00;59.60;;;;;;5110324;27;20462;-87
2022/10/23 12:45:32;;;;;;;5.00;2.70;;;22.00;59.40;;;;;;5110539;27;20481;-87
2022/10/23 12:48:00;;;;;;;5.00;3.00;;;21.90;60.00;;;;;;5102360;27;20483;-88
2022/10/23 12:50:30;;;;;;;2.80;2.40;;;22.00;59.90;;;;;;5111600;27;20431;-88
2022/10/23 12:53:00;;;;;;;2.07;1.90;;;22.00;59.70;;;;;;5111317;27;20934;-88
2022/10/23 12:55:31;;;;;;;14.00;8.53;;;22.10;60.10;;;;;;5094463;27;20463;-88
2022/10/23 12:57:58;;;;;;;6.57;5.00;;;22.00;59.50;;;;;;5098245;27;20530;-87
2022/10/23 13:00:27;;;;;;;5.80;2.90;;;22.00;59.90;;;;;;5109044;27;20458;-89
2022/10/23 13:02:59;;;;;;;3.80;3.40;;;22.10;59.90;;;;;;5084044;27;20894;-88
2022/10/23 13:05:27;;;;;;;3.87;2.63;;;22.20;59.80;;;;;;5102562;27;20497;-89
2022/10/23 13:07:54;;;;;;;6.13;2.53;;;22.30;59.70;;;;;;5112782;27;20442;-89
2022/10/23 13:10:34;;;;;;;6.27;3.10;;;22.30;59.60;;;;;;5091852;27;20781;-88
2022/10/23 13:13:06;;;;;;;2.80;2.60;;;22.30;60.10;;;;;;5079721;27;20813;-89
2022/10/23 13:15:38;;;;;;;4.40;3.10;;;22.30;59.80;;;;;;5110549;27;20466;-89